sensor_id;sensor_type;location;lat;lon;timestamp;pressure;altitude;pressure_sealevel;temperature;humidity
50696;BME280;36665;51.786;21.594;2023-02-01T00:06:06;92179.05;;;0.69;80.29
50696;BME280;36665;51.786;21.594;2023-02-01T00:14:29;92200.10;;;0.75;80.11
50696;BME280;36665;51.786;21.594;2023-02-01T00:22:52;92226.80;;;0.82;80.13
50696;BME280;36665;51.786;21.594;2023-02-01T00:31:15;92260.13;;;0.91;80.37
50696;BME280;36665;51.786;21.594;2023-02-01T00:39:38;92261.63;;;0.91;80.30
50696;BME280;36665;51.786;21.594;2023-02-01T00:48:04;92269.38;;;0.93;80.38
50696;BME280;36665;51.786;21.594;2023-02-01T00:56:27;92293.14;;;0.99;80.60
50696;BME280;36665;51.786;21.594;2023-02-01T01:04:50;92275.04;;;0.95;80.45
50696;BME280;36665;51.786;21.594;2023-02-01T01:13:13;92278.57;;;0.95;80.43
50696;BME280;36665;51.786;21.594;2023-02-01T01:21:36;92313.31;;;1.04;80.54
50696;BME280;36665;51.786;21.594;2023-02-01T01:29:59;92322.96;;;1.07;80.44
50696;BME280;36665;51.786;21.594;2023-02-01T01:38:22;92336.06;;;1.10;80.55
50696;BME280;36665;51.786;21.594;2023-02-01T01:46:45;92366.73;;;1.18;80.76
50696;BME280;36665;51.786;21.594;2023-02-01T01:55:08;92394.80;;;1.26;80.89
50696;BME280;36665;51.786;21.594;2023-02-01T02:03:39;92415.25;;;1.31;81.00
50696;BME280;36665;51.786;21.594;2023-02-01T02:12:04;92414.70;;;1.30;81.02
50696;BME280;36665;51.786;21.594;2023-02-01T02:20:51;92416.73;;;1.30;81.06
50696;BME280;36665;51.786;21.594;2023-02-01T02:37:43;92454.55;;;1.41;80.77
50696;BME280;36665;51.786;21.594;2023-02-01T02:46:38;92464.44;;;1.43;80.86
50696;BME280;36665;51.786;21.594;2023-02-01T02:55:26;92467.09;;;1.44;81.01
50696;BME280;36665;51.786;21.594;2023-02-01T03:03:50;92473.48;;;1.45;81.04
50696;BME280;36665;51.786;21.594;2023-02-01T03:12:37;92466.30;;;1.43;80.93
50696;BME280;36665;51.786;21.594;2023-02-01T03:21:29;92462.89;;;1.43;80.98
50696;BME280;36665;51.786;21.594;2023-02-01T03:30:20;92465.32;;;1.43;81.11
50696;BME280;36665;51.786;21.594;2023-02-01T03:39:15;92476.86;;;1.45;81.01
50696;BME280;36665;51.786;21.594;2023-02-01T03:47:41;92480.61;;;1.47;81.28
50696;BME280;36665;51.786;21.594;2023-02-01T03:56:06;92474.20;;;1.45;81.30
50696;BME280;36665;51.786;21.594;2023-02-01T04:04:31;92465.52;;;1.43;81.12
50696;BME280;36665;51.786;21.594;2023-02-01T04:12:54;92453.73;;;1.38;81.26
50696;BME280;36665;51.786;21.594;2023-02-01T04:21:17;92463.42;;;1.42;80.94
50696;BME280;36665;51.786;21.594;2023-02-01T04:29:40;92476.04;;;1.45;81.13
50696;BME280;36665;51.786;21.594;2023-02-01T04:38:03;92496.86;;;1.50;81.16
50696;BME280;36665;51.786;21.594;2023-02-01T04:46:26;92503.01;;;1.52;81.23
50696;BME280;36665;51.786;21.594;2023-02-01T04:54:49;92511.05;;;1.55;81.12
50696;BME280;36665;51.786;21.594;2023-02-01T05:03:12;92515.70;;;1.57;81.22
50696;BME280;36665;51.786;21.594;2023-02-01T05:11:35;92524.83;;;1.58;81.03
50696;BME280;36665;51.786;21.594;2023-02-01T05:20:16;92535.88;;;1.61;81.23
50696;BME280;36665;51.786;21.594;2023-02-01T05:28:39;92534.32;;;1.61;81.05
50696;BME280;36665;51.786;21.594;2023-02-01T05:37:02;92537.90;;;1.62;81.29
50696;BME280;36665;51.786;21.594;2023-02-01T05:45:25;92537.10;;;1.62;81.13
50696;BME280;36665;51.786;21.594;2023-02-01T05:53:48;92557.03;;;1.66;81.14
50696;BME280;36665;51.786;21.594;2023-02-01T06:02:11;92566.03;;;1.70;80.96
50696;BME280;36665;51.786;21.594;2023-02-01T06:10:34;92575.33;;;1.72;80.93
50696;BME280;36665;51.786;21.594;2023-02-01T06:18:57;92575.92;;;1.72;81.16
50696;BME280;36665;51.786;21.594;2023-02-01T06:27:20;92579.30;;;1.73;81.22
50696;BME280;36665;51.786;21.594;2023-02-01T06:35:43;92576.98;;;1.73;81.09
50696;BME280;36665;51.786;21.594;2023-02-01T06:44:06;92575.02;;;1.73;81.03
50696;BME280;36665;51.786;21.594;2023-02-01T06:52:29;92574.41;;;1.72;80.86
50696;BME280;36665;51.786;21.594;2023-02-01T07:00:52;92573.86;;;1.72;81.12
50696;BME280;36665;51.786;21.594;2023-02-01T07:09:16;92581.76;;;1.74;80.99
50696;BME280;36665;51.786;21.594;2023-02-01T07:17:39;92598.34;;;1.78;80.90
50696;BME280;36665;51.786;21.594;2023-02-01T07:26:04;92592.38;;;1.76;80.80
50696;BME280;36665;51.786;21.594;2023-02-01T07:34:29;92609.23;;;1.81;80.84
50696;BME280;36665;51.786;21.594;2023-02-01T07:42:53;92645.02;;;1.91;80.86
50696;BME280;36665;51.786;21.594;2023-02-01T07:51:16;92661.02;;;1.95;80.85
50696;BME280;36665;51.786;21.594;2023-02-01T07:59:40;92659.80;;;1.96;80.70
50696;BME280;36665;51.786;21.594;2023-02-01T08:08:23;92683.77;;;2.02;81.01
50696;BME280;36665;51.786;21.594;2023-02-01T08:16:46;92692.11;;;2.04;80.69
50696;BME280;36665;51.786;21.594;2023-02-01T08:25:09;92695.81;;;2.04;80.96
50696;BME280;36665;51.786;21.594;2023-02-01T08:33:33;92726.30;;;2.14;81.03
50696;BME280;36665;51.786;21.594;2023-02-01T08:41:56;92747.63;;;2.19;81.01
50696;BME280;36665;51.786;21.594;2023-02-01T08:50:37;92771.91;;;2.26;80.96
50696;BME280;36665;51.786;21.594;2023-02-01T08:59:00;92786.46;;;2.29;81.01
50696;BME280;36665;51.786;21.594;2023-02-01T09:07:23;92784.80;;;2.29;80.89
50696;BME280;36665;51.786;21.594;2023-02-01T09:15:54;92764.49;;;2.23;80.93
50696;BME280;36665;51.786;21.594;2023-02-01T09:24:17;92724.33;;;2.13;80.93
50696;BME280;36665;51.786;21.594;2023-02-01T09:32:41;92664.27;;;1.97;80.82
50696;BME280;36665;51.786;21.594;2023-02-01T09:50:14;92692.99;;;2.04;80.63
50696;BME280;36665;51.786;21.594;2023-02-01T10:07:56;92765.14;;;2.22;80.82
50696;BME280;36665;51.786;21.594;2023-02-01T10:16:34;92777.73;;;2.26;80.84
50696;BME280;36665;51.786;21.594;2023-02-01T10:26:20;92799.27;;;2.32;80.84
50696;BME280;36665;51.786;21.594;2023-02-01T10:34:18;92851.41;;;2.45;80.81
50696;BME280;36665;51.786;21.594;2023-02-01T10:42:42;92943.42;;;2.71;81.13
50696;BME280;36665;51.786;21.594;2023-02-01T10:51:08;93008.91;;;2.87;81.13
50696;BME280;36665;51.786;21.594;2023-02-01T10:59:34;93092.46;;;3.09;81.15
50696;BME280;36665;51.786;21.594;2023-02-01T11:07:59;93159.66;;;3.28;81.07
50696;BME280;36665;51.786;21.594;2023-02-01T11:16:36;93230.17;;;3.46;81.08
50696;BME280;36665;51.786;21.594;2023-02-01T11:25:01;93273.30;;;3.58;81.23
50696;BME280;36665;51.786;21.594;2023-02-01T11:33:32;93260.19;;;3.54;81.09
50696;BME280;36665;51.786;21.594;2023-02-01T12:42:59;93032.70;;;2.94;80.63
50696;BME280;36665;51.786;21.594;2023-02-01T12:51:33;93042.98;;;2.96;80.38
50696;BME280;36665;51.786;21.594;2023-02-01T13:08:41;93120.52;;;3.16;80.70
50696;BME280;36665;51.786;21.594;2023-02-01T13:17:21;93106.04;;;3.13;80.69
50696;BME280;36665;51.786;21.594;2023-02-01T13:25:49;93073.11;;;3.03;80.69
50696;BME280;36665;51.786;21.594;2023-02-01T13:43:23;92957.83;;;2.74;80.53
50696;BME280;36665;51.786;21.594;2023-02-01T13:51:52;92947.85;;;2.71;80.62
50696;BME280;36665;51.786;21.594;2023-02-01T14:00:33;92941.05;;;2.69;80.36
50696;BME280;36665;51.786;21.594;2023-02-01T14:17:33;92987.27;;;2.81;80.56
50696;BME280;36665;51.786;21.594;2023-02-01T14:26:03;92999.14;;;2.84;80.50
50696;BME280;36665;51.786;21.594;2023-02-01T14:43:09;93068.45;;;3.03;80.66
50696;BME280;36665;51.786;21.594;2023-02-01T14:51:53;93093.48;;;3.09;80.60
50696;BME280;36665;51.786;21.594;2023-02-01T15:08:45;92921.04;;;2.64;80.44
50696;BME280;36665;51.786;21.594;2023-02-01T15:25:45;92911.73;;;2.61;80.51
50696;BME280;36665;51.786;21.594;2023-02-01T15:34:09;92937.39;;;2.68;80.34
50696;BME280;36665;51.786;21.594;2023-02-01T15:42:31;92958.39;;;2.74;80.54
50696;BME280;36665;51.786;21.594;2023-02-01T15:50:55;92963.67;;;2.76;80.65
50696;BME280;36665;51.786;21.594;2023-02-01T15:59:21;92945.67;;;2.69;80.39
50696;BME280;36665;51.786;21.594;2023-02-01T16:16:28;92951.90;;;2.72;80.65
50696;BME280;36665;51.786;21.594;2023-02-01T16:24:52;92944.02;;;2.70;80.53
50696;BME280;36665;51.786;21.594;2023-02-01T16:33:18;92926.92;;;2.65;80.37
50696;BME280;36665;51.786;21.594;2023-02-01T16:41:44;92912.89;;;2.62;80.36
50696;BME280;36665;51.786;21.594;2023-02-01T16:50:16;92891.13;;;2.56;80.37
50696;BME280;36665;51.786;21.594;2023-02-01T17:07:16;92739.30;;;2.17;80.28
50696;BME280;36665;51.786;21.594;2023-02-01T17:15:48;92710.16;;;2.08;80.32
50696;BME280;36665;51.786;21.594;2023-02-01T17:24:17;92722.52;;;2.11;80.16
50696;BME280;36665;51.786;21.594;2023-02-01T17:32:40;92746.71;;;2.17;80.38
50696;BME280;36665;51.786;21.594;2023-02-01T17:41:04;92744.30;;;2.16;80.37
50696;BME280;36665;51.786;21.594;2023-02-01T17:49:27;92745.04;;;2.17;80.21
50696;BME280;36665;51.786;21.594;2023-02-01T17:57:50;92738.21;;;2.15;80.35
50696;BME280;36665;51.786;21.594;2023-02-01T18:06:18;92712.75;;;2.08;80.35
50696;BME280;36665;51.786;21.594;2023-02-01T18:14:43;92675.61;;;1.97;80.32
50696;BME280;36665;51.786;21.594;2023-02-01T18:23:13;92669.70;;;1.96;80.10
50696;BME280;36665;51.786;21.594;2023-02-01T18:31:43;92688.95;;;2.02;80.44
50696;BME280;36665;51.786;21.594;2023-02-01T18:40:12;92687.36;;;2.01;80.31
50696;BME280;36665;51.786;21.594;2023-02-01T18:48:36;92681.17;;;1.99;80.52
50696;BME280;36665;51.786;21.594;2023-02-01T18:56:59;92670.89;;;1.96;80.43
50696;BME280;36665;51.786;21.594;2023-02-01T19:05:22;92661.94;;;1.93;80.22
50696;BME280;36665;51.786;21.594;2023-02-01T19:13:49;92657.33;;;1.92;80.39
50696;BME280;36665;51.786;21.594;2023-02-01T19:22:12;92647.77;;;1.90;80.43
50696;BME280;36665;51.786;21.594;2023-02-01T19:30:35;92644.29;;;1.89;80.46
50696;BME280;36665;51.786;21.594;2023-02-01T19:38:58;92652.90;;;1.92;80.31
50696;BME280;36665;51.786;21.594;2023-02-01T19:47:21;92646.31;;;1.90;80.53
50696;BME280;36665;51.786;21.594;2023-02-01T19:55:45;92630.72;;;1.85;80.31
50696;BME280;36665;51.786;21.594;2023-02-01T20:04:08;92629.05;;;1.85;80.46
50696;BME280;36665;51.786;21.594;2023-02-01T20:12:31;92622.30;;;1.83;80.45
50696;BME280;36665;51.786;21.594;2023-02-01T20:20:56;92626.42;;;1.85;80.36
50696;BME280;36665;51.786;21.594;2023-02-01T20:29:20;92633.34;;;1.86;80.37
50696;BME280;36665;51.786;21.594;2023-02-01T20:37:44;92608.28;;;1.80;80.55
50696;BME280;36665;51.786;21.594;2023-02-01T20:46:07;92595.08;;;1.76;80.27
50696;BME280;36665;51.786;21.594;2023-02-01T20:54:31;92597.41;;;1.76;80.28
50696;BME280;36665;51.786;21.594;2023-02-01T21:02:54;92591.06;;;1.75;80.41
50696;BME280;36665;51.786;21.594;2023-02-01T21:11:17;92587.30;;;1.74;80.43
50696;BME280;36665;51.786;21.594;2023-02-01T21:19:40;92582.49;;;1.72;80.49
50696;BME280;36665;51.786;21.594;2023-02-01T21:28:06;92574.84;;;1.70;80.37
50696;BME280;36665;51.786;21.594;2023-02-01T21:36:30;92578.85;;;1.71;80.48
50696;BME280;36665;51.786;21.594;2023-02-01T21:44:59;92588.33;;;1.73;80.54
50696;BME280;36665;51.786;21.594;2023-02-01T21:53:24;92582.50;;;1.72;80.41
50696;BME280;36665;51.786;21.594;2023-02-01T22:01:46;92589.48;;;1.74;80.51
50696;BME280;36665;51.786;21.594;2023-02-01T22:10:10;92586.23;;;1.73;80.44
50696;BME280;36665;51.786;21.594;2023-02-01T22:18:34;92561.35;;;1.66;80.48
50696;BME280;36665;51.786;21.594;2023-02-01T22:26:57;92548.01;;;1.63;80.69
50696;BME280;36665;51.786;21.594;2023-02-01T22:35:36;92528.13;;;1.57;80.45
50696;BME280;36665;51.786;21.594;2023-02-01T22:43:59;92504.17;;;1.51;80.52
50696;BME280;36665;51.786;21.594;2023-02-01T22:52:22;92509.14;;;1.53;80.44
50696;BME280;36665;51.786;21.594;2023-02-01T23:00:45;92509.80;;;1.52;80.34
50696;BME280;36665;51.786;21.594;2023-02-01T23:09:25;92511.23;;;1.54;80.34
50696;BME280;36665;51.786;21.594;2023-02-01T23:17:48;92509.17;;;1.52;80.50
50696;BME280;36665;51.786;21.594;2023-02-01T23:26:11;92469.08;;;1.41;80.41
50696;BME280;36665;51.786;21.594;2023-02-01T23:34:34;92426.45;;;1.30;80.44
50696;BME280;36665;51.786;21.594;2023-02-01T23:42:57;92384.15;;;1.18;80.36
50696;BME280;36665;51.786;21.594;2023-02-01T23:51:40;92298.81;;;0.94;80.36
